createdAt,value
2022-11-08T00:00:03.555Z,12.88
2022-11-08T00:02:52.459Z,13.70
2022-11-08T00:05:38.783Z,13.35
2022-11-08T00:08:24.678Z,12.57
2022-11-08T00:11:10.993Z,13.80
2022-11-08T00:13:56.757Z,13.75
2022-11-08T00:16:24.167Z,14.35
2022-11-08T00:18:51.269Z,14.88
2022-11-08T00:21:18.701Z,13.38
2022-11-08T00:23:45.859Z,13.68
2022-11-08T00:26:13.210Z,13.70
2022-11-08T00:28:40.240Z,13.70
2022-11-08T00:31:07.592Z,12.55
2022-11-08T00:33:35.270Z,13.10
2022-11-08T00:36:03.702Z,13.48
2022-11-08T00:38:33.007Z,12.32
2022-11-08T00:41:00.437Z,12.52
2022-11-08T00:43:27.566Z,12.30
2022-11-08T00:45:54.826Z,12.38
2022-11-08T00:48:24.324Z,11.45
2022-11-08T00:50:51.832Z,11.93
2022-11-08T00:53:19.088Z,11.30
2022-11-08T00:55:46.408Z,11.10
2022-11-08T00:58:13.357Z,11.25
2022-11-08T01:00:42.942Z,11.95
2022-11-08T01:03:18.925Z,11.80
2022-11-08T01:05:47.765Z,13.68
2022-11-08T01:08:15.953Z,10.63
2022-11-08T01:10:45.052Z,12.23
2022-11-08T01:13:12.720Z,12.27
2022-11-08T01:15:43.177Z,12.27
2022-11-08T01:18:11.800Z,13.00
2022-11-08T01:20:44.199Z,12.23
2022-11-08T01:23:14.987Z,12.63
2022-11-08T01:25:45.435Z,12.98
2022-11-08T01:28:13.722Z,12.35
2022-11-08T01:30:43.331Z,14.48
2022-11-08T01:33:11.136Z,13.20
2022-11-08T01:35:39.686Z,12.77
2022-11-08T01:38:07.072Z,12.73
2022-11-08T01:40:34.650Z,12.75
2022-11-08T01:43:30.331Z,11.60
2022-11-08T01:46:09.901Z,11.80
2022-11-08T01:48:43.080Z,12.40
2022-11-08T01:51:15.463Z,11.10
2022-11-08T01:53:43.400Z,12.93
2022-11-08T01:56:11.856Z,13.07
2022-11-08T01:58:41.226Z,13.07
2022-11-08T02:01:09.053Z,12.35
2022-11-08T02:03:36.451Z,13.88
2022-11-08T02:06:04.436Z,13.27
2022-11-08T02:08:44.819Z,13.40
2022-11-08T02:11:16.292Z,13.20
2022-11-08T02:13:43.463Z,13.38
2022-11-08T02:16:13.769Z,12.60
2022-11-08T02:18:43.035Z,12.35
2022-11-08T02:21:24.604Z,12.85
2022-11-08T02:23:56.647Z,13.27
2022-11-08T02:26:29.472Z,12.32
2022-11-08T02:28:56.570Z,12.60
2022-11-08T02:31:23.855Z,12.48
2022-11-08T02:33:54.190Z,12.82
2022-11-08T02:36:23.189Z,14.00
2022-11-08T02:38:54.159Z,14.07
2022-11-08T02:41:21.447Z,13.95
2022-11-08T02:43:48.459Z,14.50
2022-11-08T02:46:15.750Z,14.15
2022-11-08T02:48:42.920Z,13.55
2022-11-08T02:51:10.129Z,12.55
2022-11-08T02:53:37.184Z,12.30
2022-11-08T02:56:04.676Z,11.60
2022-11-08T02:58:31.686Z,13.45
2022-11-08T03:00:59.111Z,13.13
2022-11-08T03:03:26.118Z,13.13
2022-11-08T03:05:53.379Z,13.43
2022-11-08T03:08:23.379Z,14.23
2022-11-08T03:10:50.802Z,14.52
2022-11-08T03:13:17.788Z,13.95
2022-11-08T03:15:47.543Z,14.38
2022-11-08T03:18:14.674Z,14.80
2022-11-08T03:20:42.184Z,15.70
2022-11-08T03:23:11.344Z,15.25
2022-11-08T03:25:38.603Z,15.02
2022-11-08T03:28:07.382Z,14.55
2022-11-08T03:30:35.578Z,13.90
2022-11-08T03:33:02.703Z,15.82
2022-11-08T03:35:32.494Z,15.05
2022-11-08T03:37:59.529Z,16.90
2022-11-08T03:40:27.523Z,17.92
2022-11-08T03:42:58.894Z,18.92
2022-11-08T03:45:26.251Z,19.13
2022-11-08T03:47:53.634Z,17.40
2022-11-08T03:50:23.969Z,19.38
2022-11-08T03:52:54.135Z,18.52
2022-11-08T03:55:24.512Z,20.42
2022-11-08T03:57:54.156Z,19.27
2022-11-08T04:00:24.999Z,17.98
2022-11-08T04:02:53.446Z,17.58
2022-11-08T04:05:21.056Z,18.27
2022-11-08T04:07:48.088Z,18.63
2022-11-08T04:10:15.541Z,18.15
2022-11-08T04:13:01.628Z,17.75
2022-11-08T04:15:30.974Z,17.30
2022-11-08T04:18:18.448Z,18.58
2022-11-08T04:21:06.659Z,19.92
2022-11-08T04:23:38.667Z,18.70
2022-11-08T04:26:08.789Z,17.98
2022-11-08T04:28:37.494Z,18.02
2022-11-08T04:31:17.638Z,17.58
2022-11-08T04:33:45.281Z,18.88
2022-11-08T04:36:16.727Z,17.05
2022-11-08T04:38:44.265Z,18.88
2022-11-08T04:41:13.794Z,16.88
2022-11-08T04:43:41.053Z,17.25
2022-11-08T04:46:19.668Z,19.35
2022-11-08T04:48:46.892Z,18.83
2022-11-08T04:51:16.949Z,17.40
2022-11-08T04:53:44.340Z,17.88
2022-11-08T04:56:19.566Z,19.27
2022-11-08T04:58:49.423Z,19.85
2022-11-08T05:01:19.487Z,19.33
2022-11-08T05:03:48.782Z,20.20
2022-11-08T05:06:19.068Z,20.75
2022-11-08T05:08:48.751Z,22.00
2022-11-08T05:11:21.410Z,22.27
2022-11-08T05:13:49.534Z,23.08
2022-11-08T05:16:22.731Z,21.48
2022-11-08T05:18:50.393Z,23.00
2022-11-08T05:21:40.954Z,23.13
2022-11-08T05:24:13.752Z,22.02
2022-11-08T05:26:43.144Z,21.95
2022-11-08T05:29:11.126Z,22.13
2022-11-08T05:31:38.774Z,24.73
2022-11-08T05:34:07.418Z,22.77
2022-11-08T05:36:35.080Z,24.60
2022-11-08T05:39:02.094Z,26.38
2022-11-08T05:41:29.895Z,23.15
2022-11-08T05:43:57.012Z,25.42
2022-11-08T05:46:24.865Z,24.00
2022-11-08T05:48:52.660Z,24.92
2022-11-08T05:51:20.431Z,26.52
2022-11-08T05:53:49.797Z,25.42
2022-11-08T05:56:18.082Z,24.60
2022-11-08T05:58:45.670Z,27.33
2022-11-08T06:01:16.671Z,24.73
2022-11-08T06:03:43.726Z,26.83
2022-11-08T06:06:16.997Z,27.75
2022-11-08T06:11:31.714Z,28.75
2022-11-08T06:13:58.750Z,26.77
2022-11-08T06:16:26.442Z,26.67
2022-11-08T06:18:53.643Z,27.50
2022-11-08T06:21:21.617Z,26.05
2022-11-08T06:23:51.981Z,29.42
2022-11-08T06:26:19.363Z,28.02
2022-11-08T06:28:46.339Z,27.98
2022-11-08T06:31:15.924Z,28.08
2022-11-08T06:33:45.416Z,29.00
2022-11-08T06:36:12.701Z,28.48
2022-11-08T06:38:41.995Z,29.25
2022-11-08T06:41:18.437Z,28.05
2022-11-08T06:43:45.447Z,29.02
2022-11-08T06:46:12.913Z,28.90
2022-11-08T06:48:39.964Z,31.20
2022-11-08T06:51:07.408Z,29.52
2022-11-08T06:53:34.728Z,32.40
2022-11-08T06:56:03.006Z,32.28
2022-11-08T06:58:32.594Z,31.77
2022-11-08T07:01:06.899Z,33.05
2022-11-08T07:03:34.679Z,37.95
2022-11-08T07:06:06.737Z,34.72
2022-11-08T07:08:35.330Z,34.60
2022-11-08T07:11:02.998Z,35.88
2022-11-08T07:13:30.389Z,36.42
2022-11-08T07:15:59.693Z,37.17
2022-11-08T07:18:27.442Z,39.10
2022-11-08T07:21:00.013Z,38.60
2022-11-08T07:23:27.892Z,39.85
2022-11-08T07:25:55.197Z,36.80
2022-11-08T07:28:22.294Z,39.33
2022-11-08T07:30:58.081Z,40.03
2022-11-08T07:33:27.663Z,43.67
2022-11-08T07:35:55.272Z,41.55
2022-11-08T07:38:23.444Z,39.65
2022-11-08T07:40:55.290Z,42.25
2022-11-08T07:43:30.858Z,43.42
2022-11-08T07:46:10.599Z,42.80
2022-11-08T07:48:37.642Z,42.85
2022-11-08T07:51:04.985Z,43.95
2022-11-08T07:53:34.310Z,43.33
2022-11-08T07:56:04.149Z,41.42
2022-11-08T07:58:31.182Z,41.58
2022-11-08T08:01:03.557Z,42.88
2022-11-08T08:03:31.154Z,42.35
2022-11-08T08:06:01.336Z,42.63
2022-11-08T08:08:29.707Z,45.40
2022-11-08T08:10:59.349Z,44.03
2022-11-08T08:13:26.711Z,45.72
2022-11-08T08:15:58.071Z,41.85
2022-11-08T08:18:25.222Z,43.60
2022-11-08T08:20:55.024Z,43.67
2022-11-08T08:23:22.083Z,43.38
2022-11-08T08:25:49.411Z,46.60
2022-11-08T08:28:18.660Z,41.90
2022-11-08T08:30:45.979Z,41.42
2022-11-08T08:33:32.930Z,41.67
2022-11-08T08:36:03.262Z,43.80
2022-11-08T08:38:32.009Z,42.55
2022-11-08T08:41:00.529Z,39.85
2022-11-08T08:43:28.799Z,38.42
2022-11-08T08:46:01.379Z,37.65
2022-11-08T08:48:29.016Z,35.58
2022-11-08T08:50:57.127Z,35.05
2022-11-08T08:53:26.809Z,33.25
2022-11-08T08:55:54.169Z,33.50
2022-11-08T08:58:26.138Z,35.13
2022-11-08T09:03:42.840Z,33.30
2022-11-08T09:06:10.838Z,33.85
2022-11-08T09:08:38.011Z,32.15
2022-11-08T09:11:05.714Z,31.23
2022-11-08T09:13:32.909Z,30.38
2022-11-08T09:16:03.782Z,30.52
2022-11-08T09:18:31.797Z,30.27
2022-11-08T09:21:00.147Z,29.92
2022-11-08T09:23:27.300Z,28.70
2022-11-08T09:26:03.583Z,27.63
2022-11-08T09:28:32.233Z,28.52
2022-11-08T09:31:01.869Z,28.50
2022-11-08T09:33:32.487Z,27.73
2022-11-08T09:36:01.612Z,29.10
2022-11-08T09:38:28.866Z,28.17
2022-11-08T09:41:08.789Z,27.60
2022-11-08T09:44:10.024Z,26.58
2022-11-08T09:46:52.550Z,26.33
2022-11-08T09:49:29.706Z,26.40
2022-11-08T09:51:59.626Z,28.95
2022-11-08T09:54:41.864Z,26.27
2022-11-08T09:57:21.471Z,25.85
2022-11-08T09:59:56.188Z,27.95
2022-11-08T10:02:24.879Z,26.67
2022-11-08T10:05:05.178Z,26.00
2022-11-08T10:07:32.491Z,26.13
2022-11-08T10:10:26.089Z,23.98
2022-11-08T10:13:22.825Z,22.80
2022-11-08T10:16:04.787Z,23.40
2022-11-08T10:18:35.107Z,24.58
2022-11-08T10:21:20.065Z,24.83
2022-11-08T10:24:03.836Z,25.20
2022-11-08T10:26:38.665Z,24.85
2022-11-08T10:29:17.995Z,24.38
2022-11-08T10:31:47.469Z,24.58
2022-11-08T10:34:24.074Z,25.30
2022-11-08T10:37:00.438Z,27.60
2022-11-08T10:39:35.699Z,29.85
2022-11-08T10:42:10.493Z,27.83
2022-11-08T10:44:40.617Z,21.17
2022-11-08T10:47:29.824Z,25.48
2022-11-08T10:50:03.353Z,24.20
2022-11-08T10:52:39.639Z,24.73
2022-11-08T10:57:53.434Z,23.65
2022-11-08T11:00:23.516Z,24.02
2022-11-08T11:02:59.775Z,26.60
2022-11-08T11:05:30.042Z,25.85
2022-11-08T11:08:02.026Z,27.25
2022-11-08T11:10:31.206Z,26.88
2022-11-08T11:13:02.650Z,27.70
2022-11-08T11:15:33.254Z,27.38
2022-11-08T11:18:00.473Z,27.92
2022-11-08T11:20:28.322Z,28.20
2022-11-08T11:22:55.485Z,27.58
2022-11-08T11:25:25.561Z,28.77
2022-11-08T11:27:58.786Z,29.52
2022-11-08T11:30:35.860Z,29.52
2022-11-08T11:33:26.630Z,30.17
2022-11-08T11:35:58.539Z,28.02
2022-11-08T11:38:39.784Z,28.38
2022-11-08T11:41:19.647Z,28.30
2022-11-08T11:44:01.146Z,26.42
2022-11-08T11:46:53.333Z,27.73
2022-11-08T11:49:25.436Z,25.80
2022-11-08T11:51:55.156Z,26.98
2022-11-08T11:54:28.579Z,24.73
2022-11-08T11:57:04.818Z,26.27
2022-11-08T11:59:38.915Z,25.52
2022-11-08T12:02:44.258Z,25.52
2022-11-08T12:05:36.546Z,26.83
2022-11-08T12:08:27.086Z,26.10
2022-11-08T12:10:54.056Z,27.10
2022-11-08T12:13:21.288Z,29.40
2022-11-08T12:15:57.451Z,28.60
2022-11-08T12:19:28.015Z,24.88
2022-11-08T12:22:04.064Z,25.77
2022-11-08T12:24:43.428Z,26.60
2022-11-08T12:27:28.879Z,27.00
2022-11-08T12:30:20.802Z,26.25
2022-11-08T12:33:21.319Z,24.38
2022-11-08T12:36:00.786Z,26.58
2022-11-08T12:38:59.972Z,25.65
2022-11-08T12:41:50.934Z,24.45
2022-11-08T12:45:03.439Z,26.25
2022-11-08T12:47:58.359Z,25.27
2022-11-08T12:50:37.752Z,25.05
2022-11-08T12:53:23.771Z,28.23
2022-11-08T12:55:55.501Z,31.65
2022-11-08T12:58:34.362Z,27.10
2022-11-08T13:01:18.874Z,26.08
2022-11-08T13:03:52.577Z,24.10
2022-11-08T13:06:28.256Z,25.23
2022-11-08T13:09:04.800Z,24.77
2022-11-08T13:11:49.701Z,25.70
2022-11-08T13:14:21.672Z,26.67
2022-11-08T13:17:20.041Z,26.13
2022-11-08T13:19:47.289Z,30.15
2022-11-08T13:22:29.705Z,28.35
2022-11-08T13:25:01.161Z,26.48
2022-11-08T13:27:34.222Z,25.75
2022-11-08T13:30:24.984Z,24.88
2022-11-08T13:33:07.203Z,23.80
2022-11-08T13:35:46.621Z,25.15
2022-11-08T13:38:29.739Z,25.90
2022-11-08T13:41:15.045Z,25.33
2022-11-08T13:43:42.073Z,27.20
2022-11-08T13:46:27.912Z,25.85
2022-11-08T13:48:58.102Z,19.10
2022-11-08T13:51:46.303Z,26.55
2022-11-08T13:54:22.527Z,24.73
2022-11-08T13:56:52.797Z,25.58
2022-11-08T13:59:32.379Z,27.63
2022-11-08T14:02:29.798Z,26.38
2022-11-08T14:05:18.129Z,25.85
2022-11-08T14:07:55.271Z,25.77
2022-11-08T14:10:38.895Z,26.15
2022-11-08T14:13:23.702Z,27.48
2022-11-08T14:15:57.091Z,27.60
2022-11-08T14:18:32.232Z,25.60
2022-11-08T14:20:59.941Z,26.87
2022-11-08T14:23:30.984Z,28.42
2022-11-08T14:25:59.992Z,28.77
2022-11-08T14:28:41.835Z,28.95
2022-11-08T14:31:41.557Z,28.40
2022-11-08T14:34:30.720Z,28.85
2022-11-08T14:36:58.805Z,29.85
2022-11-08T14:39:30.858Z,28.15
2022-11-08T14:42:01.296Z,29.92
2022-11-08T14:44:31.794Z,28.75
2022-11-08T14:46:59.639Z,28.42
2022-11-08T14:49:34.509Z,27.88
2022-11-08T14:52:16.177Z,28.40
2022-11-08T14:54:47.693Z,30.60
2022-11-08T14:57:30.562Z,28.83
2022-11-08T15:00:00.887Z,29.92
2022-11-08T15:02:32.156Z,30.67
2022-11-08T15:05:00.121Z,30.85
2022-11-08T15:07:28.302Z,30.45
2022-11-08T15:09:57.297Z,29.75
2022-11-08T15:12:30.179Z,30.92
2022-11-08T15:15:01.384Z,29.95
2022-11-08T15:17:37.512Z,30.40
2022-11-08T15:20:21.011Z,28.95
2022-11-08T15:22:52.871Z,29.83
2022-11-08T15:25:38.451Z,28.25
2022-11-08T15:28:22.065Z,29.73
2022-11-08T15:31:02.466Z,28.50
2022-11-08T15:33:37.508Z,28.52
2022-11-08T15:36:14.494Z,28.08
2022-11-08T15:38:50.651Z,31.30
2022-11-08T15:41:38.600Z,29.83
2022-11-08T15:46:51.739Z,28.52
2022-11-08T15:49:20.071Z,30.35
2022-11-08T15:51:52.867Z,29.00
2022-11-08T15:54:24.426Z,30.42
2022-11-08T15:56:55.567Z,31.77
2022-11-08T15:59:28.168Z,31.15
2022-11-08T16:02:05.206Z,30.67
2022-11-08T16:04:34.990Z,29.73
2022-11-08T16:07:10.749Z,32.88
2022-11-08T16:09:38.967Z,30.52
2022-11-08T16:12:07.971Z,30.40
2022-11-08T16:14:43.100Z,34.70
2022-11-08T16:17:15.993Z,40.20
2022-11-08T16:19:45.048Z,35.30
2022-11-08T16:22:18.231Z,35.60
2022-11-08T16:24:47.910Z,35.13
2022-11-08T16:27:17.912Z,34.75
2022-11-08T16:29:47.885Z,33.83
2022-11-08T16:32:18.482Z,32.33
2022-11-08T16:34:46.355Z,34.92
2022-11-08T16:37:17.394Z,37.35
2022-11-08T16:39:47.761Z,38.45
2022-11-08T16:42:16.416Z,38.17
2022-11-08T16:44:45.803Z,37.22
2022-11-08T16:47:19.026Z,38.88
2022-11-08T16:49:51.530Z,36.70
2022-11-08T16:52:20.824Z,35.15
2022-11-08T16:54:51.341Z,37.33
2022-11-08T16:57:34.046Z,38.25
2022-11-08T17:00:03.393Z,35.80
2022-11-08T17:02:34.940Z,37.20
2022-11-08T17:05:04.464Z,37.03
2022-11-08T17:07:33.095Z,36.38
2022-11-08T17:10:01.834Z,37.05
2022-11-08T17:12:30.588Z,35.60
2022-11-08T17:14:58.758Z,36.15
2022-11-08T17:17:27.303Z,38.47
2022-11-08T17:19:56.035Z,36.13
2022-11-08T17:22:25.353Z,39.25
2022-11-08T17:24:53.984Z,36.92
2022-11-08T17:27:22.566Z,37.13
2022-11-08T17:29:50.773Z,45.05
2022-11-08T17:32:19.616Z,39.28
2022-11-08T17:34:49.926Z,38.75
2022-11-08T17:37:18.263Z,36.75
2022-11-08T17:39:46.432Z,39.15
2022-11-08T17:42:16.966Z,39.35
2022-11-08T17:44:48.074Z,37.67
2022-11-08T17:47:19.029Z,38.17
2022-11-08T17:49:48.321Z,37.67
2022-11-08T17:52:17.182Z,37.03
2022-11-08T17:54:50.249Z,36.63
2022-11-08T17:57:21.407Z,38.70
2022-11-08T17:59:50.022Z,40.33
2022-11-08T18:02:20.701Z,39.90
2022-11-08T18:04:49.537Z,40.83
2022-11-08T18:07:18.291Z,42.20
2022-11-08T18:09:46.875Z,42.70
2022-11-08T18:12:15.976Z,41.10
2022-11-08T18:14:51.252Z,39.50
2022-11-08T18:17:22.906Z,38.83
2022-11-08T18:19:51.961Z,39.97
2022-11-08T18:22:23.073Z,39.97
2022-11-08T18:24:51.475Z,39.97
2022-11-08T18:27:20.825Z,39.15
2022-11-08T18:29:51.681Z,43.20
2022-11-08T18:32:20.454Z,41.50
2022-11-08T18:34:50.009Z,46.03
2022-11-08T18:37:19.016Z,47.67
2022-11-08T18:39:47.417Z,50.13
2022-11-08T18:42:16.015Z,54.58
2022-11-08T18:44:44.344Z,56.78
2022-11-08T18:47:14.051Z,55.25
2022-11-08T18:49:43.085Z,58.08
2022-11-08T18:52:14.650Z,52.92
2022-11-08T18:54:43.193Z,54.72
2022-11-08T18:57:17.363Z,58.65
2022-11-08T18:59:48.049Z,51.65
2022-11-08T19:02:17.620Z,51.85
2022-11-08T19:04:46.140Z,63.45
2022-11-08T19:07:17.392Z,67.45
2022-11-08T19:09:48.461Z,74.07
2022-11-08T19:12:17.053Z,71.00
2022-11-08T19:14:46.270Z,62.65
2022-11-08T19:17:17.933Z,62.22
2022-11-08T19:19:48.194Z,59.15
2022-11-08T19:22:16.770Z,56.53
2022-11-08T19:24:45.302Z,58.92
2022-11-08T19:27:14.754Z,57.05
2022-11-08T19:29:46.430Z,50.45
2022-11-08T19:32:17.015Z,43.42
2022-11-08T19:34:48.924Z,45.72
2022-11-08T19:37:19.343Z,45.85
2022-11-08T19:39:48.631Z,44.17
2022-11-08T19:42:18.981Z,40.75
2022-11-08T19:44:51.028Z,39.90
2022-11-08T19:47:19.779Z,38.63
2022-11-08T19:49:48.414Z,42.15
2022-11-08T19:52:18.975Z,41.92
2022-11-08T19:54:48.565Z,43.97
2022-11-08T19:57:18.579Z,45.78
2022-11-08T19:59:47.066Z,51.25
2022-11-08T20:02:17.465Z,48.38
2022-11-08T20:04:46.806Z,51.28
2022-11-08T20:07:24.438Z,49.22
2022-11-08T20:09:55.133Z,48.08
2022-11-08T20:12:26.287Z,45.20
2022-11-08T20:14:56.408Z,46.55
2022-11-08T20:17:28.863Z,44.80
2022-11-08T20:19:56.977Z,46.25
2022-11-08T20:22:25.872Z,45.03
2022-11-08T20:24:54.932Z,48.95
2022-11-08T20:27:24.755Z,47.05
2022-11-08T20:29:53.359Z,50.17
2022-11-08T20:32:23.923Z,50.63
2022-11-08T20:34:52.048Z,53.72
2022-11-08T20:37:22.559Z,50.72
2022-11-08T20:39:52.931Z,51.50
2022-11-08T20:42:23.557Z,49.53
2022-11-08T20:44:54.002Z,52.10
2022-11-08T20:47:23.301Z,50.08
2022-11-08T20:49:55.897Z,51.38
2022-11-08T20:52:27.442Z,50.08
2022-11-08T20:54:55.998Z,49.38
2022-11-08T20:57:24.904Z,45.33
2022-11-08T21:00:11.750Z,49.30
2022-11-08T21:02:41.831Z,44.72
2022-11-08T21:05:12.776Z,45.38
2022-11-08T21:10:43.066Z,41.13
2022-11-08T21:13:15.584Z,40.03
2022-11-08T21:15:47.922Z,41.75
2022-11-08T21:18:19.029Z,40.60
2022-11-08T21:20:52.501Z,39.15
2022-11-08T21:23:20.959Z,40.20
2022-11-08T21:25:51.579Z,43.00
2022-11-08T21:28:20.143Z,41.30
2022-11-08T21:30:48.365Z,40.25
2022-11-08T21:33:16.987Z,43.97
2022-11-08T21:35:49.179Z,43.03
2022-11-08T21:38:19.916Z,39.50
2022-11-08T21:40:48.709Z,40.58
2022-11-08T21:43:17.304Z,39.55
2022-11-08T21:45:44.987Z,37.67
2022-11-08T21:48:15.444Z,37.10
2022-11-08T21:50:42.971Z,38.00
2022-11-08T21:53:16.053Z,38.38
2022-11-08T21:55:45.539Z,40.05
2022-11-08T21:58:13.286Z,38.15
2022-11-08T22:00:40.872Z,38.30
2022-11-08T22:03:11.478Z,38.13
2022-11-08T22:05:38.758Z,38.95
2022-11-08T22:08:14.140Z,36.90
2022-11-08T22:10:48.690Z,37.72
2022-11-08T22:13:16.013Z,37.63
2022-11-08T22:15:44.935Z,37.45
2022-11-08T22:18:19.750Z,36.92
2022-11-08T22:21:14.402Z,36.70
2022-11-08T22:23:41.756Z,36.08
2022-11-08T22:26:08.806Z,36.97
2022-11-08T22:28:35.771Z,35.50
2022-11-08T22:31:03.126Z,36.65
2022-11-08T22:33:32.358Z,36.58
2022-11-08T22:35:59.635Z,34.65
2022-11-08T22:38:26.647Z,34.05
2022-11-08T22:40:54.033Z,35.50
2022-11-08T22:43:21.262Z,34.80
2022-11-08T22:45:50.723Z,33.85
2022-11-08T22:48:18.011Z,34.80
2022-11-08T22:50:46.552Z,34.92
2022-11-08T22:53:13.638Z,33.83
2022-11-08T22:55:40.948Z,33.05
2022-11-08T22:58:08.117Z,34.60
2022-11-08T23:00:35.490Z,34.60
2022-11-08T23:03:04.690Z,32.45
2022-11-08T23:05:34.290Z,35.78
2022-11-08T23:08:01.384Z,34.25
2022-11-08T23:10:28.780Z,33.50
2022-11-08T23:13:15.104Z,33.97
2022-11-08T23:16:00.973Z,33.42
2022-11-08T23:18:30.488Z,33.28
2022-11-08T23:21:16.533Z,33.33
2022-11-08T23:24:04.895Z,31.90
2022-11-08T23:26:50.801Z,30.25
2022-11-08T23:29:36.445Z,31.40
2022-11-08T23:32:03.763Z,30.75
2022-11-08T23:34:31.006Z,33.00
2022-11-08T23:36:58.306Z,31.73
2022-11-08T23:39:25.260Z,31.50
2022-11-08T23:42:11.230Z,33.55
2022-11-08T23:44:38.277Z,31.50
2022-11-08T23:47:05.530Z,31.70
2022-11-08T23:49:32.485Z,30.15
2022-11-08T23:51:59.818Z,32.90
2022-11-08T23:54:26.976Z,31.20
2022-11-08T23:56:54.356Z,32.42
2022-11-08T23:59:21.388Z,30.52
